sensor_id;sensor_type;location;lat;lon;timestamp;temperature;humidity
36374;DHT22;22399;51.346;12.372;2023-02-28T00:01:47;1.00;99.90
36374;DHT22;22399;51.346;12.372;2023-02-28T00:04:16;1.00;99.90
36374;DHT22;22399;51.346;12.372;2023-02-28T00:06:46;1.00;99.90
36374;DHT22;22399;51.346;12.372;2023-02-28T00:09:14;1.00;99.90
36374;DHT22;22399;51.346;12.372;2023-02-28T00:11:43;1.00;99.90
36374;DHT22;22399;51.346;12.372;2023-02-28T00:14:11;1.00;99.90
36374;DHT22;22399;51.346;12.372;2023-02-28T00:16:40;1.00;99.90
36374;DHT22;22399;51.346;12.372;2023-02-28T00:19:09;1.00;99.90
36374;DHT22;22399;51.346;12.372;2023-02-28T00:21:40;1.00;99.90
36374;DHT22;22399;51.346;12.372;2023-02-28T00:24:11;1.00;99.90
36374;DHT22;22399;51.346;12.372;2023-02-28T00:26:39;1.00;99.90
36374;DHT22;22399;51.346;12.372;2023-02-28T00:29:07;0.90;99.90
36374;DHT22;22399;51.346;12.372;2023-02-28T00:31:36;0.90;99.90
36374;DHT22;22399;51.346;12.372;2023-02-28T00:34:04;0.90;99.90
36374;DHT22;22399;51.346;12.372;2023-02-28T00:36:32;0.90;99.90
36374;DHT22;22399;51.346;12.372;2023-02-28T00:39:03;0.90;99.90
36374;DHT22;22399;51.346;12.372;2023-02-28T00:41:33;0.80;99.90
36374;DHT22;22399;51.346;12.372;2023-02-28T00:44:04;0.90;99.90
36374;DHT22;22399;51.346;12.372;2023-02-28T00:46:32;0.80;99.90
36374;DHT22;22399;51.346;12.372;2023-02-28T00:49:00;0.90;99.90
36374;DHT22;22399;51.346;12.372;2023-02-28T00:51:28;0.80;99.90
36374;DHT22;22399;51.346;12.372;2023-02-28T00:53:57;0.80;99.90
36374;DHT22;22399;51.346;12.372;2023-02-28T00:56:25;0.80;99.90
36374;DHT22;22399;51.346;12.372;2023-02-28T00:58:55;0.80;99.90
36374;DHT22;22399;51.346;12.372;2023-02-28T01:01:23;0.80;99.90
36374;DHT22;22399;51.346;12.372;2023-02-28T01:03:52;0.80;99.90
36374;DHT22;22399;51.346;12.372;2023-02-28T01:06:20;0.80;99.90
36374;DHT22;22399;51.346;12.372;2023-02-28T01:08:48;0.80;99.90
36374;DHT22;22399;51.346;12.372;2023-02-28T01:11:18;0.80;99.90
36374;DHT22;22399;51.346;12.372;2023-02-28T01:13:46;0.80;99.90
36374;DHT22;22399;51.346;12.372;2023-02-28T01:16:16;0.80;99.90
36374;DHT22;22399;51.346;12.372;2023-02-28T01:18:45;0.80;99.90
36374;DHT22;22399;51.346;12.372;2023-02-28T01:21:16;0.80;99.90
36374;DHT22;22399;51.346;12.372;2023-02-28T01:23:44;0.90;99.90
36374;DHT22;22399;51.346;12.372;2023-02-28T01:26:14;0.90;99.90
36374;DHT22;22399;51.346;12.372;2023-02-28T01:28:43;0.90;99.90
36374;DHT22;22399;51.346;12.372;2023-02-28T01:31:12;0.90;99.90
36374;DHT22;22399;51.346;12.372;2023-02-28T01:33:43;0.90;99.90
36374;DHT22;22399;51.346;12.372;2023-02-28T01:36:13;0.90;99.90
36374;DHT22;22399;51.346;12.372;2023-02-28T01:38:41;0.90;99.90
36374;DHT22;22399;51.346;12.372;2023-02-28T01:41:16;0.80;99.90
36374;DHT22;22399;51.346;12.372;2023-02-28T01:44:00;0.80;99.90
36374;DHT22;22399;51.346;12.372;2023-02-28T01:46:32;0.80;99.90
36374;DHT22;22399;51.346;12.372;2023-02-28T01:49:06;0.80;99.90
36374;DHT22;22399;51.346;12.372;2023-02-28T01:51:38;0.80;99.90
36374;DHT22;22399;51.346;12.372;2023-02-28T01:54:10;0.80;99.90
36374;DHT22;22399;51.346;12.372;2023-02-28T01:56:45;0.80;99.90
36374;DHT22;22399;51.346;12.372;2023-02-28T01:59:18;0.80;99.90
36374;DHT22;22399;51.346;12.372;2023-02-28T02:01:47;0.90;99.90
36374;DHT22;22399;51.346;12.372;2023-02-28T02:04:20;0.80;99.90
36374;DHT22;22399;51.346;12.372;2023-02-28T02:06:50;0.80;99.90
36374;DHT22;22399;51.346;12.372;2023-02-28T02:09:18;0.80;99.90
36374;DHT22;22399;51.346;12.372;2023-02-28T02:11:47;0.70;99.90
36374;DHT22;22399;51.346;12.372;2023-02-28T02:14:35;0.70;99.90
36374;DHT22;22399;51.346;12.372;2023-02-28T02:17:18;0.70;99.90
36374;DHT22;22399;51.346;12.372;2023-02-28T02:26:08;0.60;99.90
36374;DHT22;22399;51.346;12.372;2023-02-28T02:29:01;0.60;99.90
36374;DHT22;22399;51.346;12.372;2023-02-28T02:31:54;0.60;99.90
36374;DHT22;22399;51.346;12.372;2023-02-28T02:34:50;0.60;99.90
36374;DHT22;22399;51.346;12.372;2023-02-28T02:37:26;0.60;99.90
36374;DHT22;22399;51.346;12.372;2023-02-28T02:40:03;0.60;99.90
36374;DHT22;22399;51.346;12.372;2023-02-28T02:42:41;0.50;99.90
36374;DHT22;22399;51.346;12.372;2023-02-28T02:45:12;0.50;99.90
36374;DHT22;22399;51.346;12.372;2023-02-28T02:47:44;0.50;99.90
36374;DHT22;22399;51.346;12.372;2023-02-28T02:50:18;0.40;99.90
36374;DHT22;22399;51.346;12.372;2023-02-28T02:52:51;0.30;99.90
36374;DHT22;22399;51.346;12.372;2023-02-28T02:55:22;0.30;99.90
36374;DHT22;22399;51.346;12.372;2023-02-28T02:57:54;0.20;99.90
36374;DHT22;22399;51.346;12.372;2023-02-28T03:00:27;0.20;99.90
36374;DHT22;22399;51.346;12.372;2023-02-28T03:02:58;0.10;99.90
36374;DHT22;22399;51.346;12.372;2023-02-28T03:05:34;0.10;99.90
36374;DHT22;22399;51.346;12.372;2023-02-28T03:08:04;0.00;99.90
36374;DHT22;22399;51.346;12.372;2023-02-28T03:10:37;0.00;99.90
36374;DHT22;22399;51.346;12.372;2023-02-28T03:13:32;0.00;99.90
36374;DHT22;22399;51.346;12.372;2023-02-28T03:16:20;0.00;99.90
36374;DHT22;22399;51.346;12.372;2023-02-28T03:18:57;-0.10;99.90
36374;DHT22;22399;51.346;12.372;2023-02-28T03:21:33;-0.10;99.90
36374;DHT22;22399;51.346;12.372;2023-02-28T03:24:07;-0.10;99.90
36374;DHT22;22399;51.346;12.372;2023-02-28T03:26:41;-0.10;99.90
36374;DHT22;22399;51.346;12.372;2023-02-28T03:29:15;-0.10;99.90
36374;DHT22;22399;51.346;12.372;2023-02-28T03:31:50;-0.10;99.90
36374;DHT22;22399;51.346;12.372;2023-02-28T03:34:24;-0.10;99.90
36374;DHT22;22399;51.346;12.372;2023-02-28T03:36:57;-0.10;99.90
36374;DHT22;22399;51.346;12.372;2023-02-28T03:39:30;-0.10;99.90
36374;DHT22;22399;51.346;12.372;2023-02-28T03:42:05;-0.10;99.90
36374;DHT22;22399;51.346;12.372;2023-02-28T03:44:39;-0.20;99.90
36374;DHT22;22399;51.346;12.372;2023-02-28T03:47:12;-0.20;99.90
36374;DHT22;22399;51.346;12.372;2023-02-28T03:49:46;-0.30;99.90
36374;DHT22;22399;51.346;12.372;2023-02-28T03:52:19;-0.30;99.90
36374;DHT22;22399;51.346;12.372;2023-02-28T03:54:52;-0.30;99.90
36374;DHT22;22399;51.346;12.372;2023-02-28T03:57:27;-0.40;99.90
36374;DHT22;22399;51.346;12.372;2023-02-28T04:00:02;-0.40;99.90
36374;DHT22;22399;51.346;12.372;2023-02-28T04:02:38;-0.30;99.90
36374;DHT22;22399;51.346;12.372;2023-02-28T04:05:08;-0.20;99.90
36374;DHT22;22399;51.346;12.372;2023-02-28T04:07:38;-0.20;99.90
36374;DHT22;22399;51.346;12.372;2023-02-28T04:10:08;-0.20;99.90
36374;DHT22;22399;51.346;12.372;2023-02-28T04:12:36;-0.10;99.90
36374;DHT22;22399;51.346;12.372;2023-02-28T04:15:06;-0.10;99.90
36374;DHT22;22399;51.346;12.372;2023-02-28T04:17:34;-0.10;99.90
36374;DHT22;22399;51.346;12.372;2023-02-28T04:20:03;0.00;99.90
36374;DHT22;22399;51.346;12.372;2023-02-28T04:22:37;0.00;99.90
36374;DHT22;22399;51.346;12.372;2023-02-28T04:25:07;0.00;99.90
36374;DHT22;22399;51.346;12.372;2023-02-28T04:27:35;0.00;99.90
36374;DHT22;22399;51.346;12.372;2023-02-28T04:30:04;0.00;99.90
36374;DHT22;22399;51.346;12.372;2023-02-28T04:32:33;0.00;99.90
36374;DHT22;22399;51.346;12.372;2023-02-28T04:35:02;0.00;99.90
36374;DHT22;22399;51.346;12.372;2023-02-28T04:37:30;0.00;99.90
36374;DHT22;22399;51.346;12.372;2023-02-28T04:40:03;0.00;99.90
36374;DHT22;22399;51.346;12.372;2023-02-28T04:42:32;-0.10;99.90
36374;DHT22;22399;51.346;12.372;2023-02-28T04:45:03;-0.10;99.90
36374;DHT22;22399;51.346;12.372;2023-02-28T04:47:31;-0.10;99.90
36374;DHT22;22399;51.346;12.372;2023-02-28T04:49:59;-0.20;99.90
36374;DHT22;22399;51.346;12.372;2023-02-28T04:52:28;-0.30;99.90
36374;DHT22;22399;51.346;12.372;2023-02-28T04:54:57;-0.30;99.90
36374;DHT22;22399;51.346;12.372;2023-02-28T04:57:27;-0.30;99.90
36374;DHT22;22399;51.346;12.372;2023-02-28T04:59:56;-0.30;99.90
36374;DHT22;22399;51.346;12.372;2023-02-28T05:02:25;-0.30;99.90
36374;DHT22;22399;51.346;12.372;2023-02-28T05:04:53;-0.30;99.90
36374;DHT22;22399;51.346;12.372;2023-02-28T05:07:21;-0.20;99.90
36374;DHT22;22399;51.346;12.372;2023-02-28T05:09:50;-0.20;99.90
36374;DHT22;22399;51.346;12.372;2023-02-28T05:12:18;-0.10;99.90
36374;DHT22;22399;51.346;12.372;2023-02-28T05:14:48;-0.20;99.90
36374;DHT22;22399;51.346;12.372;2023-02-28T05:17:16;-0.10;99.90
36374;DHT22;22399;51.346;12.372;2023-02-28T05:19:44;-0.20;99.90
36374;DHT22;22399;51.346;12.372;2023-02-28T05:22:14;-0.10;99.90
36374;DHT22;22399;51.346;12.372;2023-02-28T05:24:43;-0.10;99.90
36374;DHT22;22399;51.346;12.372;2023-02-28T05:27:12;-0.20;99.90
36374;DHT22;22399;51.346;12.372;2023-02-28T05:29:40;-0.10;99.90
36374;DHT22;22399;51.346;12.372;2023-02-28T05:32:12;-0.10;99.90
36374;DHT22;22399;51.346;12.372;2023-02-28T05:34:41;-0.10;99.90
36374;DHT22;22399;51.346;12.372;2023-02-28T05:37:12;-0.10;99.90
36374;DHT22;22399;51.346;12.372;2023-02-28T05:39:41;-0.10;99.90
36374;DHT22;22399;51.346;12.372;2023-02-28T05:42:09;-0.10;99.90
36374;DHT22;22399;51.346;12.372;2023-02-28T05:44:38;-0.20;99.90
36374;DHT22;22399;51.346;12.372;2023-02-28T05:47:06;-0.20;99.90
36374;DHT22;22399;51.346;12.372;2023-02-28T05:49:36;-0.20;99.90
36374;DHT22;22399;51.346;12.372;2023-02-28T05:52:05;-0.20;99.90
36374;DHT22;22399;51.346;12.372;2023-02-28T05:54:33;-0.30;99.90
36374;DHT22;22399;51.346;12.372;2023-02-28T05:57:02;-0.30;99.90
36374;DHT22;22399;51.346;12.372;2023-02-28T05:59:38;-0.30;99.90
36374;DHT22;22399;51.346;12.372;2023-02-28T06:02:11;-0.30;99.90
36374;DHT22;22399;51.346;12.372;2023-02-28T06:04:41;-0.30;99.90
36374;DHT22;22399;51.346;12.372;2023-02-28T06:07:10;-0.40;99.90
36374;DHT22;22399;51.346;12.372;2023-02-28T06:09:38;-0.40;99.90
36374;DHT22;22399;51.346;12.372;2023-02-28T06:12:07;-0.50;99.90
36374;DHT22;22399;51.346;12.372;2023-02-28T06:14:37;-0.50;99.90
36374;DHT22;22399;51.346;12.372;2023-02-28T06:17:05;-0.50;99.90
36374;DHT22;22399;51.346;12.372;2023-02-28T06:19:33;-0.50;99.90
36374;DHT22;22399;51.346;12.372;2023-02-28T06:22:05;-0.60;99.90
36374;DHT22;22399;51.346;12.372;2023-02-28T06:24:33;-0.60;99.90
36374;DHT22;22399;51.346;12.372;2023-02-28T06:27:01;-0.60;99.90
36374;DHT22;22399;51.346;12.372;2023-02-28T06:29:32;-0.60;99.90
36374;DHT22;22399;51.346;12.372;2023-02-28T06:32:01;-0.60;99.90
36374;DHT22;22399;51.346;12.372;2023-02-28T06:34:29;-0.50;99.90
36374;DHT22;22399;51.346;12.372;2023-02-28T06:36:58;-0.50;99.90
36374;DHT22;22399;51.346;12.372;2023-02-28T06:39:30;-0.50;99.90
36374;DHT22;22399;51.346;12.372;2023-02-28T06:41:59;-0.40;99.90
36374;DHT22;22399;51.346;12.372;2023-02-28T06:44:28;-0.40;99.90
36374;DHT22;22399;51.346;12.372;2023-02-28T06:47:02;-0.30;99.90
36374;DHT22;22399;51.346;12.372;2023-02-28T06:49:32;-0.30;99.90
36374;DHT22;22399;51.346;12.372;2023-02-28T06:52:01;-0.20;99.90
36374;DHT22;22399;51.346;12.372;2023-02-28T06:54:31;-0.10;99.90
36374;DHT22;22399;51.346;12.372;2023-02-28T06:56:59;-0.10;99.90
36374;DHT22;22399;51.346;12.372;2023-02-28T06:59:28;0.10;99.90
36374;DHT22;22399;51.346;12.372;2023-02-28T07:01:57;0.20;99.90
36374;DHT22;22399;51.346;12.372;2023-02-28T07:04:25;0.30;99.90
36374;DHT22;22399;51.346;12.372;2023-02-28T07:06:54;0.40;99.90
36374;DHT22;22399;51.346;12.372;2023-02-28T07:09:23;0.60;99.90
36374;DHT22;22399;51.346;12.372;2023-02-28T07:11:58;0.70;99.90
36374;DHT22;22399;51.346;12.372;2023-02-28T07:14:27;1.00;99.90
36374;DHT22;22399;51.346;12.372;2023-02-28T07:16:55;1.20;99.90
36374;DHT22;22399;51.346;12.372;2023-02-28T07:19:24;1.20;99.90
36374;DHT22;22399;51.346;12.372;2023-02-28T07:21:53;1.60;99.90
36374;DHT22;22399;51.346;12.372;2023-02-28T07:24:21;2.10;99.90
36374;DHT22;22399;51.346;12.372;2023-02-28T07:26:52;2.40;99.90
36374;DHT22;22399;51.346;12.372;2023-02-28T07:29:22;2.90;99.90
36374;DHT22;22399;51.346;12.372;2023-02-28T07:31:50;3.30;99.90
36374;DHT22;22399;51.346;12.372;2023-02-28T07:34:20;3.50;99.90
36374;DHT22;22399;51.346;12.372;2023-02-28T07:36:49;3.60;99.90
36374;DHT22;22399;51.346;12.372;2023-02-28T07:39:20;3.60;99.90
36374;DHT22;22399;51.346;12.372;2023-02-28T07:41:50;4.00;99.90
36374;DHT22;22399;51.346;12.372;2023-02-28T07:44:23;4.00;99.90
36374;DHT22;22399;51.346;12.372;2023-02-28T07:46:52;4.20;99.90
36374;DHT22;22399;51.346;12.372;2023-02-28T07:49:20;4.20;99.90
36374;DHT22;22399;51.346;12.372;2023-02-28T07:51:49;4.30;99.90
36374;DHT22;22399;51.346;12.372;2023-02-28T07:54:17;4.50;99.90
36374;DHT22;22399;51.346;12.372;2023-02-28T07:56:45;4.40;99.90
36374;DHT22;22399;51.346;12.372;2023-02-28T07:59:14;4.40;99.90
36374;DHT22;22399;51.346;12.372;2023-02-28T08:01:43;4.70;99.90
36374;DHT22;22399;51.346;12.372;2023-02-28T08:04:12;5.10;99.90
36374;DHT22;22399;51.346;12.372;2023-02-28T08:06:46;5.00;99.90
36374;DHT22;22399;51.346;12.372;2023-02-28T08:09:14;4.80;99.90
36374;DHT22;22399;51.346;12.372;2023-02-28T08:11:43;4.90;99.90
36374;DHT22;22399;51.346;12.372;2023-02-28T08:14:11;5.20;99.90
36374;DHT22;22399;51.346;12.372;2023-02-28T08:16:39;5.20;99.90
36374;DHT22;22399;51.346;12.372;2023-02-28T08:19:11;5.40;99.90
36374;DHT22;22399;51.346;12.372;2023-02-28T08:21:39;5.80;99.90
36374;DHT22;22399;51.346;12.372;2023-02-28T08:24:08;5.70;99.90
36374;DHT22;22399;51.346;12.372;2023-02-28T08:26:36;5.80;99.90
36374;DHT22;22399;51.346;12.372;2023-02-28T08:29:05;5.60;99.90
36374;DHT22;22399;51.346;12.372;2023-02-28T08:31:33;5.50;99.90
36374;DHT22;22399;51.346;12.372;2023-02-28T08:34:05;5.70;99.90
36374;DHT22;22399;51.346;12.372;2023-02-28T08:36:35;5.70;99.90
36374;DHT22;22399;51.346;12.372;2023-02-28T08:39:04;5.70;99.90
36374;DHT22;22399;51.346;12.372;2023-02-28T08:41:33;5.70;99.90
36374;DHT22;22399;51.346;12.372;2023-02-28T08:44:01;6.00;99.90
36374;DHT22;22399;51.346;12.372;2023-02-28T08:46:30;6.40;99.90
36374;DHT22;22399;51.346;12.372;2023-02-28T08:48:58;6.50;99.90
36374;DHT22;22399;51.346;12.372;2023-02-28T08:51:28;6.30;99.90
36374;DHT22;22399;51.346;12.372;2023-02-28T08:54:00;6.30;99.90
36374;DHT22;22399;51.346;12.372;2023-02-28T08:56:29;6.70;99.90
36374;DHT22;22399;51.346;12.372;2023-02-28T08:58:57;7.00;99.90
36374;DHT22;22399;51.346;12.372;2023-02-28T09:01:27;6.70;99.90
36374;DHT22;22399;51.346;12.372;2023-02-28T09:03:57;6.20;99.90
36374;DHT22;22399;51.346;12.372;2023-02-28T09:06:27;6.30;99.90
36374;DHT22;22399;51.346;12.372;2023-02-28T09:08:56;6.20;99.90
36374;DHT22;22399;51.346;12.372;2023-02-28T09:11:28;6.20;99.90
36374;DHT22;22399;51.346;12.372;2023-02-28T09:13:58;6.40;99.90
36374;DHT22;22399;51.346;12.372;2023-02-28T09:16:27;6.90;99.90
36374;DHT22;22399;51.346;12.372;2023-02-28T09:18:55;7.10;99.90
36374;DHT22;22399;51.346;12.372;2023-02-28T09:21:24;7.10;99.90
36374;DHT22;22399;51.346;12.372;2023-02-28T09:23:52;7.10;99.90
36374;DHT22;22399;51.346;12.372;2023-02-28T09:26:22;6.60;99.90
36374;DHT22;22399;51.346;12.372;2023-02-28T09:28:53;6.30;99.90
36374;DHT22;22399;51.346;12.372;2023-02-28T09:31:23;6.10;99.90
36374;DHT22;22399;51.346;12.372;2023-02-28T09:33:54;6.10;99.90
36374;DHT22;22399;51.346;12.372;2023-02-28T09:36:23;6.30;99.90
36374;DHT22;22399;51.346;12.372;2023-02-28T09:39:07;6.70;99.90
36374;DHT22;22399;51.346;12.372;2023-02-28T09:41:38;6.90;99.90
36374;DHT22;22399;51.346;12.372;2023-02-28T09:44:18;7.00;99.90
36374;DHT22;22399;51.346;12.372;2023-02-28T09:46:50;7.00;99.90
36374;DHT22;22399;51.346;12.372;2023-02-28T09:49:24;6.60;99.90
36374;DHT22;22399;51.346;12.372;2023-02-28T09:51:57;5.90;99.90
36374;DHT22;22399;51.346;12.372;2023-02-28T09:54:30;5.70;99.90
36374;DHT22;22399;51.346;12.372;2023-02-28T09:57:01;5.80;99.90
36374;DHT22;22399;51.346;12.372;2023-02-28T09:59:44;5.60;99.90
36374;DHT22;22399;51.346;12.372;2023-02-28T10:02:28;5.40;99.90
36374;DHT22;22399;51.346;12.372;2023-02-28T10:05:03;5.30;99.90
36374;DHT22;22399;51.346;12.372;2023-02-28T10:07:45;5.30;99.90
36374;DHT22;22399;51.346;12.372;2023-02-28T10:10:23;4.80;99.90
36374;DHT22;22399;51.346;12.372;2023-02-28T10:12:54;4.50;99.90
36374;DHT22;22399;51.346;12.372;2023-02-28T10:15:29;4.20;99.90
36374;DHT22;22399;51.346;12.372;2023-02-28T10:18:01;4.20;99.90
36374;DHT22;22399;51.346;12.372;2023-02-28T10:20:38;4.50;99.90
36374;DHT22;22399;51.346;12.372;2023-02-28T10:23:13;4.40;99.90
36374;DHT22;22399;51.346;12.372;2023-02-28T10:25:47;4.40;99.90
36374;DHT22;22399;51.346;12.372;2023-02-28T10:28:18;4.70;99.90
36374;DHT22;22399;51.346;12.372;2023-02-28T10:30:50;5.20;99.90
36374;DHT22;22399;51.346;12.372;2023-02-28T10:33:22;6.00;99.90
36374;DHT22;22399;51.346;12.372;2023-02-28T10:35:51;6.50;99.90
36374;DHT22;22399;51.346;12.372;2023-02-28T10:38:22;7.00;99.90
36374;DHT22;22399;51.346;12.372;2023-02-28T10:40:51;7.50;99.90
36374;DHT22;22399;51.346;12.372;2023-02-28T10:43:30;7.40;99.90
36374;DHT22;22399;51.346;12.372;2023-02-28T10:46:02;7.10;99.90
36374;DHT22;22399;51.346;12.372;2023-02-28T10:48:37;6.60;99.90
36374;DHT22;22399;51.346;12.372;2023-02-28T10:51:07;6.50;99.90
36374;DHT22;22399;51.346;12.372;2023-02-28T10:53:39;6.60;99.90
36374;DHT22;22399;51.346;12.372;2023-02-28T10:56:27;6.70;99.90
36374;DHT22;22399;51.346;12.372;2023-02-28T10:58:59;6.60;99.90
36374;DHT22;22399;51.346;12.372;2023-02-28T11:01:40;6.80;99.90
36374;DHT22;22399;51.346;12.372;2023-02-28T11:04:17;7.00;99.90
36374;DHT22;22399;51.346;12.372;2023-02-28T11:06:46;7.00;99.90
36374;DHT22;22399;51.346;12.372;2023-02-28T11:09:22;7.00;99.90
36374;DHT22;22399;51.346;12.372;2023-02-28T11:11:51;7.20;99.90
36374;DHT22;22399;51.346;12.372;2023-02-28T11:14:21;7.00;99.60
36374;DHT22;22399;51.346;12.372;2023-02-28T11:16:52;7.00;99.90
36374;DHT22;22399;51.346;12.372;2023-02-28T11:19:24;6.60;99.90
36374;DHT22;22399;51.346;12.372;2023-02-28T11:21:56;6.60;99.90
36374;DHT22;22399;51.346;12.372;2023-02-28T11:24:28;6.80;99.90
36374;DHT22;22399;51.346;12.372;2023-02-28T11:26:58;7.00;99.90
36374;DHT22;22399;51.346;12.372;2023-02-28T11:29:28;7.10;99.90
36374;DHT22;22399;51.346;12.372;2023-02-28T11:32:09;7.60;99.90
36374;DHT22;22399;51.346;12.372;2023-02-28T11:34:41;7.60;99.90
36374;DHT22;22399;51.346;12.372;2023-02-28T11:37:13;7.70;99.90
36374;DHT22;22399;51.346;12.372;2023-02-28T11:39:42;8.00;99.80
36374;DHT22;22399;51.346;12.372;2023-02-28T11:42:39;8.10;99.20
36374;DHT22;22399;51.346;12.372;2023-02-28T11:45:22;7.60;99.10
36374;DHT22;22399;51.346;12.372;2023-02-28T11:47:59;7.30;99.90
36374;DHT22;22399;51.346;12.372;2023-02-28T11:50:45;7.40;99.90
36374;DHT22;22399;51.346;12.372;2023-02-28T11:53:22;7.60;99.90
36374;DHT22;22399;51.346;12.372;2023-02-28T11:55:58;7.40;99.90
36374;DHT22;22399;51.346;12.372;2023-02-28T11:58:41;7.70;99.90
36374;DHT22;22399;51.346;12.372;2023-02-28T12:01:37;7.70;99.50
36374;DHT22;22399;51.346;12.372;2023-02-28T12:04:22;7.70;99.90
36374;DHT22;22399;51.346;12.372;2023-02-28T12:06:57;7.50;99.10
36374;DHT22;22399;51.346;12.372;2023-02-28T12:09:47;7.40;98.90
36374;DHT22;22399;51.346;12.372;2023-02-28T12:12:29;7.30;98.90
36374;DHT22;22399;51.346;12.372;2023-02-28T12:15:22;7.40;98.80
36374;DHT22;22399;51.346;12.372;2023-02-28T12:18:03;7.30;98.60
36374;DHT22;22399;51.346;12.372;2023-02-28T12:20:42;7.30;98.60
36374;DHT22;22399;51.346;12.372;2023-02-28T12:26:25;7.40;98.00
36374;DHT22;22399;51.346;12.372;2023-02-28T12:29:00;7.30;98.00
36374;DHT22;22399;51.346;12.372;2023-02-28T12:31:34;7.50;97.90
36374;DHT22;22399;51.346;12.372;2023-02-28T12:34:07;7.40;97.80
36374;DHT22;22399;51.346;12.372;2023-02-28T12:36:39;7.30;97.60
36374;DHT22;22399;51.346;12.372;2023-02-28T12:39:12;7.50;98.30
36374;DHT22;22399;51.346;12.372;2023-02-28T12:41:45;7.70;97.70
36374;DHT22;22399;51.346;12.372;2023-02-28T12:44:18;7.40;97.20
36374;DHT22;22399;51.346;12.372;2023-02-28T12:46:50;7.20;97.30
36374;DHT22;22399;51.346;12.372;2023-02-28T12:49:22;7.10;97.30
36374;DHT22;22399;51.346;12.372;2023-02-28T12:51:53;7.20;97.40
36374;DHT22;22399;51.346;12.372;2023-02-28T12:54:26;7.40;98.00
36374;DHT22;22399;51.346;12.372;2023-02-28T12:57:02;7.60;97.00
36374;DHT22;22399;51.346;12.372;2023-02-28T12:59:37;7.50;96.90
36374;DHT22;22399;51.346;12.372;2023-02-28T13:02:50;7.70;96.80
36374;DHT22;22399;51.346;12.372;2023-02-28T13:05:46;7.60;96.00
36374;DHT22;22399;51.346;12.372;2023-02-28T13:11:25;7.30;95.40
36374;DHT22;22399;51.346;12.372;2023-02-28T13:13:59;7.20;95.20
36374;DHT22;22399;51.346;12.372;2023-02-28T13:16:50;7.40;95.50
36374;DHT22;22399;51.346;12.372;2023-02-28T13:19:20;7.40;94.40
36374;DHT22;22399;51.346;12.372;2023-02-28T13:21:50;7.40;94.00
36374;DHT22;22399;51.346;12.372;2023-02-28T13:24:43;7.70;94.20
36374;DHT22;22399;51.346;12.372;2023-02-28T13:27:36;7.70;94.20
36374;DHT22;22399;51.346;12.372;2023-02-28T13:33:26;7.90;93.30
36374;DHT22;22399;51.346;12.372;2023-02-28T13:36:11;7.80;93.00
36374;DHT22;22399;51.346;12.372;2023-02-28T13:38:51;7.40;93.00
36374;DHT22;22399;51.346;12.372;2023-02-28T13:41:46;7.30;92.40
36374;DHT22;22399;51.346;12.372;2023-02-28T13:44:17;7.20;92.80
36374;DHT22;22399;51.346;12.372;2023-02-28T13:47:23;7.30;92.40
36374;DHT22;22399;51.346;12.372;2023-02-28T13:49:52;7.30;92.50
36374;DHT22;22399;51.346;12.372;2023-02-28T13:52:24;7.40;91.70
36374;DHT22;22399;51.346;12.372;2023-02-28T13:55:15;7.50;91.40
36374;DHT22;22399;51.346;12.372;2023-02-28T13:58:09;7.60;91.40
36374;DHT22;22399;51.346;12.372;2023-02-28T14:00:55;7.40;91.00
36374;DHT22;22399;51.346;12.372;2023-02-28T14:03:53;7.50;90.90
36374;DHT22;22399;51.346;12.372;2023-02-28T14:06:27;7.60;90.80
36374;DHT22;22399;51.346;12.372;2023-02-28T14:09:00;7.80;90.10
36374;DHT22;22399;51.346;12.372;2023-02-28T14:11:32;7.50;90.00
36374;DHT22;22399;51.346;12.372;2023-02-28T14:14:05;7.50;90.10
36374;DHT22;22399;51.346;12.372;2023-02-28T14:16:40;7.60;90.00
36374;DHT22;22399;51.346;12.372;2023-02-28T14:19:14;7.60;89.80
36374;DHT22;22399;51.346;12.372;2023-02-28T14:22:00;8.10;89.20
36374;DHT22;22399;51.346;12.372;2023-02-28T14:24:48;8.20;88.20
36374;DHT22;22399;51.346;12.372;2023-02-28T14:27:35;7.80;87.80
36374;DHT22;22399;51.346;12.372;2023-02-28T14:33:23;7.70;87.60
36374;DHT22;22399;51.346;12.372;2023-02-28T14:36:16;7.80;86.90
36374;DHT22;22399;51.346;12.372;2023-02-28T14:38:48;8.10;86.60
36374;DHT22;22399;51.346;12.372;2023-02-28T14:41:22;8.20;85.60
36374;DHT22;22399;51.346;12.372;2023-02-28T14:43:53;8.10;85.30
36374;DHT22;22399;51.346;12.372;2023-02-28T14:46:25;8.00;85.70
36374;DHT22;22399;51.346;12.372;2023-02-28T14:48:57;8.10;85.30
36374;DHT22;22399;51.346;12.372;2023-02-28T14:51:26;7.90;85.20
36374;DHT22;22399;51.346;12.372;2023-02-28T14:53:59;7.80;84.80
36374;DHT22;22399;51.346;12.372;2023-02-28T14:56:32;8.00;84.90
36374;DHT22;22399;51.346;12.372;2023-02-28T14:59:02;8.20;84.10
36374;DHT22;22399;51.346;12.372;2023-02-28T15:01:33;8.30;83.40
36374;DHT22;22399;51.346;12.372;2023-02-28T15:04:05;8.30;83.20
36374;DHT22;22399;51.346;12.372;2023-02-28T15:06:34;8.30;83.20
36374;DHT22;22399;51.346;12.372;2023-02-28T15:09:16;7.70;84.60
36374;DHT22;22399;51.346;12.372;2023-02-28T15:11:47;7.10;87.40
36374;DHT22;22399;51.346;12.372;2023-02-28T15:14:21;6.60;87.70
36374;DHT22;22399;51.346;12.372;2023-02-28T15:16:55;6.10;88.80
36374;DHT22;22399;51.346;12.372;2023-02-28T15:19:27;5.80;89.30
36374;DHT22;22399;51.346;12.372;2023-02-28T15:22:00;5.60;89.50
36374;DHT22;22399;51.346;12.372;2023-02-28T15:24:35;5.40;89.80
36374;DHT22;22399;51.346;12.372;2023-02-28T15:27:06;5.30;89.80
36374;DHT22;22399;51.346;12.372;2023-02-28T15:29:43;5.10;89.60
36374;DHT22;22399;51.346;12.372;2023-02-28T15:32:24;4.90;89.90
36374;DHT22;22399;51.346;12.372;2023-02-28T15:34:56;4.80;89.90
36374;DHT22;22399;51.346;12.372;2023-02-28T15:37:38;4.70;89.70
36374;DHT22;22399;51.346;12.372;2023-02-28T15:40:22;4.60;89.70
36374;DHT22;22399;51.346;12.372;2023-02-28T15:43:05;4.60;89.50
36374;DHT22;22399;51.346;12.372;2023-02-28T15:45:37;4.60;89.40
36374;DHT22;22399;51.346;12.372;2023-02-28T15:48:16;4.50;89.30
36374;DHT22;22399;51.346;12.372;2023-02-28T15:50:48;4.40;89.20
36374;DHT22;22399;51.346;12.372;2023-02-28T15:53:19;4.30;89.30
36374;DHT22;22399;51.346;12.372;2023-02-28T15:55:57;4.20;89.20
36374;DHT22;22399;51.346;12.372;2023-02-28T15:58:26;4.20;89.20
36374;DHT22;22399;51.346;12.372;2023-02-28T16:01:07;4.10;89.10
36374;DHT22;22399;51.346;12.372;2023-02-28T16:03:40;4.10;89.40
36374;DHT22;22399;51.346;12.372;2023-02-28T16:06:36;4.00;88.90
36374;DHT22;22399;51.346;12.372;2023-02-28T16:09:06;4.00;89.10
36374;DHT22;22399;51.346;12.372;2023-02-28T16:11:39;4.00;88.90
36374;DHT22;22399;51.346;12.372;2023-02-28T16:14:19;4.00;88.80
36374;DHT22;22399;51.346;12.372;2023-02-28T16:16:52;3.90;88.80
36374;DHT22;22399;51.346;12.372;2023-02-28T16:19:21;3.90;88.90
36374;DHT22;22399;51.346;12.372;2023-02-28T16:21:51;3.80;89.00
36374;DHT22;22399;51.346;12.372;2023-02-28T16:24:19;3.70;89.00